Mount Solon, Virginia
Current Conditions -  °F | °C
As of 6:15 PM on Wednesday 22 Oct 2014 (Local Time) from KVBW Reporting Station
Overcast Overcast  
Wind Chill: 53°   Ceiling: 3600
Heat Index: 53°   Visibility: 10mi
Dew Point: 41°   Wind: 13mph
Humidity: 64%   Direction: 320°NW
Pressure: 30.02"   Gusts: 21mph
Location:  38.35°N, 79.08°W
Report Text: KVBW 222215Z AUTO 32011G18KT 10SM BKN036 OVC080 12/05 A3002 RMK AO2 T01150048
Loading
Personal Weather Stations






























Interactive Weather Map
Tropical Storm Tracking
New forecast layout! Learn more

10-Day Weather Forecast

Advertisements
Track Severe Weather on mobile